sensor_id;sensor_type;location;lat;lon;timestamp;pressure;altitude;pressure_sealevel;temperature;humidity
20368;BME280;10343;52.402;9.796;2023-07-24T00:01:08;99902.97;;;25.18;69.24
20368;BME280;10343;52.402;9.796;2023-07-24T00:03:36;99892.66;;;25.22;68.87
20368;BME280;10343;52.402;9.796;2023-07-24T00:06:05;99895.63;;;25.29;69.36
20368;BME280;10343;52.402;9.796;2023-07-24T00:08:33;99891.31;;;24.98;69.83
20368;BME280;10343;52.402;9.796;2023-07-24T00:11:01;99893.28;;;25.43;68.35
20368;BME280;10343;52.402;9.796;2023-07-24T00:13:30;99894.06;;;25.26;68.70
20368;BME280;10343;52.402;9.796;2023-07-24T00:15:58;99892.13;;;25.18;68.93
20368;BME280;10343;52.402;9.796;2023-07-24T00:18:26;99881.13;;;24.72;72.37
20368;BME280;10343;52.402;9.796;2023-07-24T00:20:54;99885.06;;;24.98;70.03
20368;BME280;10343;52.402;9.796;2023-07-24T00:23:23;99884.16;;;25.07;70.12
20368;BME280;10343;52.402;9.796;2023-07-24T00:25:51;99890.91;;;25.31;67.59
20368;BME280;10343;52.402;9.796;2023-07-24T00:28:19;99892.47;;;24.96;69.40
20368;BME280;10343;52.402;9.796;2023-07-24T00:30:47;99889.56;;;25.07;67.85
20368;BME280;10343;52.402;9.796;2023-07-24T00:33:16;99869.69;;;24.88;69.00
20368;BME280;10343;52.402;9.796;2023-07-24T00:35:44;99874.06;;;25.37;64.84
20368;BME280;10343;52.402;9.796;2023-07-24T00:38:12;99872.09;;;25.19;66.72
20368;BME280;10343;52.402;9.796;2023-07-24T00:40:42;99885.84;;;25.73;63.79
20368;BME280;10343;52.402;9.796;2023-07-24T00:43:11;99880.44;;;25.08;67.42
20368;BME280;10343;52.402;9.796;2023-07-24T00:45:38;99874.03;;;25.09;67.41
20368;BME280;10343;52.402;9.796;2023-07-24T00:48:06;99876.38;;;25.22;66.67
20368;BME280;10343;52.402;9.796;2023-07-24T00:50:38;99878.97;;;25.51;65.15
20368;BME280;10343;52.402;9.796;2023-07-24T00:53:06;99890.91;;;25.31;66.39
20368;BME280;10343;52.402;9.796;2023-07-24T00:55:34;99880.63;;;24.97;66.97
20368;BME280;10343;52.402;9.796;2023-07-24T00:58:04;99874.31;;;25.06;67.80
20368;BME280;10343;52.402;9.796;2023-07-24T01:00:32;99885.81;;;25.55;66.07
20368;BME280;10343;52.402;9.796;2023-07-24T01:03:01;99891.03;;;25.67;64.91
20368;BME280;10343;52.402;9.796;2023-07-24T01:05:29;99883.97;;;24.90;67.19
20368;BME280;10343;52.402;9.796;2023-07-24T01:07:57;99885.59;;;25.01;65.65
20368;BME280;10343;52.402;9.796;2023-07-24T01:10:25;99879.34;;;25.29;64.85
20368;BME280;10343;52.402;9.796;2023-07-24T01:12:58;99879.38;;;26.02;62.46
20368;BME280;10343;52.402;9.796;2023-07-24T01:15:30;99875.59;;;25.67;62.77
20368;BME280;10343;52.402;9.796;2023-07-24T01:18:06;99866.84;;;25.91;61.94
20368;BME280;10343;52.402;9.796;2023-07-24T01:20:37;99862.31;;;25.46;63.37
20368;BME280;10343;52.402;9.796;2023-07-24T01:23:14;99871.44;;;24.80;66.50
20368;BME280;10343;52.402;9.796;2023-07-24T01:25:56;99864.78;;;25.02;66.70
20368;BME280;10343;52.402;9.796;2023-07-24T01:28:24;99875.47;;;24.66;66.92
20368;BME280;10343;52.402;9.796;2023-07-24T01:30:53;99864.63;;;25.31;64.57
20368;BME280;10343;52.402;9.796;2023-07-24T01:33:21;99862.88;;;25.40;64.38
20368;BME280;10343;52.402;9.796;2023-07-24T01:35:54;99863.19;;;25.09;65.19
20368;BME280;10343;52.402;9.796;2023-07-24T01:38:24;99862.66;;;25.23;64.43
20368;BME280;10343;52.402;9.796;2023-07-24T01:40:52;99848.41;;;25.21;64.86
20368;BME280;10343;52.402;9.796;2023-07-24T01:43:24;99857.19;;;25.05;65.66
20368;BME280;10343;52.402;9.796;2023-07-24T01:45:53;99857.13;;;24.87;66.05
20368;BME280;10343;52.402;9.796;2023-07-24T01:48:21;99852.75;;;25.14;65.32
20368;BME280;10343;52.402;9.796;2023-07-24T01:50:49;99847.09;;;25.25;64.64
20368;BME280;10343;52.402;9.796;2023-07-24T01:53:17;99843.78;;;25.04;65.37
20368;BME280;10343;52.402;9.796;2023-07-24T01:55:45;99849.94;;;24.49;69.20
20368;BME280;10343;52.402;9.796;2023-07-24T01:58:13;99842.00;;;24.95;66.45
20368;BME280;10343;52.402;9.796;2023-07-24T02:00:43;99854.41;;;25.25;64.94
20368;BME280;10343;52.402;9.796;2023-07-24T02:03:11;99850.56;;;24.90;66.34
20368;BME280;10343;52.402;9.796;2023-07-24T02:05:39;99842.06;;;24.65;67.19
20368;BME280;10343;52.402;9.796;2023-07-24T02:08:07;99858.16;;;25.14;65.51
20368;BME280;10343;52.402;9.796;2023-07-24T02:10:37;99856.72;;;24.82;65.61
20368;BME280;10343;52.402;9.796;2023-07-24T02:13:05;99851.19;;;24.64;67.28
20368;BME280;10343;52.402;9.796;2023-07-24T02:15:34;99848.91;;;24.59;68.21
20368;BME280;10343;52.402;9.796;2023-07-24T02:18:04;99836.94;;;25.00;66.16
20368;BME280;10343;52.402;9.796;2023-07-24T02:20:32;99835.44;;;24.87;66.56
20368;BME280;10343;52.402;9.796;2023-07-24T02:22:59;99837.28;;;24.39;68.91
20368;BME280;10343;52.402;9.796;2023-07-24T02:25:27;99835.97;;;24.53;69.32
20368;BME280;10343;52.402;9.796;2023-07-24T02:27:55;99823.97;;;24.46;69.88
20368;BME280;10343;52.402;9.796;2023-07-24T02:30:23;99826.13;;;24.52;68.46
20368;BME280;10343;52.402;9.796;2023-07-24T02:32:51;99823.75;;;24.39;68.98
20368;BME280;10343;52.402;9.796;2023-07-24T02:35:20;99826.53;;;24.48;68.37
20368;BME280;10343;52.402;9.796;2023-07-24T02:37:48;99835.47;;;24.11;69.53
20368;BME280;10343;52.402;9.796;2023-07-24T02:40:16;99836.16;;;24.22;70.11
20368;BME280;10343;52.402;9.796;2023-07-24T02:42:44;99830.16;;;24.38;68.95
20368;BME280;10343;52.402;9.796;2023-07-24T02:45:12;99840.22;;;24.56;68.44
20368;BME280;10343;52.402;9.796;2023-07-24T02:47:40;99842.16;;;25.11;65.53
20368;BME280;10343;52.402;9.796;2023-07-24T02:50:09;99840.69;;;24.99;65.45
20368;BME280;10343;52.402;9.796;2023-07-24T02:52:38;99850.13;;;24.95;65.02
20368;BME280;10343;52.402;9.796;2023-07-24T02:55:07;99845.50;;;24.57;68.01
20368;BME280;10343;52.402;9.796;2023-07-24T02:57:35;99844.56;;;24.96;65.08
20368;BME280;10343;52.402;9.796;2023-07-24T03:00:05;99849.19;;;25.32;63.93
20368;BME280;10343;52.402;9.796;2023-07-24T03:02:33;99842.47;;;25.46;62.98
20368;BME280;10343;52.402;9.796;2023-07-24T03:05:01;99827.44;;;25.51;62.27
20368;BME280;10343;52.402;9.796;2023-07-24T03:07:30;99834.03;;;25.85;60.71
20368;BME280;10343;52.402;9.796;2023-07-24T03:10:00;99831.47;;;26.19;58.52
20368;BME280;10343;52.402;9.796;2023-07-24T03:12:29;99830.41;;;25.76;60.28
20368;BME280;10343;52.402;9.796;2023-07-24T03:14:57;99827.41;;;26.23;59.56
20368;BME280;10343;52.402;9.796;2023-07-24T03:17:25;99835.81;;;25.76;60.62
20368;BME280;10343;52.402;9.796;2023-07-24T03:19:54;99838.06;;;25.81;60.81
20368;BME280;10343;52.402;9.796;2023-07-24T03:22:22;99829.75;;;26.00;60.39
20368;BME280;10343;52.402;9.796;2023-07-24T03:24:50;99831.84;;;25.24;63.19
20368;BME280;10343;52.402;9.796;2023-07-24T03:27:19;99833.00;;;25.22;62.85
20368;BME280;10343;52.402;9.796;2023-07-24T03:29:47;99837.41;;;24.95;65.26
20368;BME280;10343;52.402;9.796;2023-07-24T03:32:15;99844.94;;;25.39;63.07
20368;BME280;10343;52.402;9.796;2023-07-24T03:34:43;99839.22;;;25.04;64.56
20368;BME280;10343;52.402;9.796;2023-07-24T03:37:11;99832.66;;;24.59;66.20
20368;BME280;10343;52.402;9.796;2023-07-24T03:39:39;99829.97;;;24.97;65.54
20368;BME280;10343;52.402;9.796;2023-07-24T03:42:09;99826.72;;;25.67;61.46
20368;BME280;10343;52.402;9.796;2023-07-24T03:44:41;99819.38;;;25.32;62.96
20368;BME280;10343;52.402;9.796;2023-07-24T03:47:09;99813.69;;;24.69;65.35
20368;BME280;10343;52.402;9.796;2023-07-24T03:49:36;99817.38;;;25.06;64.20
20368;BME280;10343;52.402;9.796;2023-07-24T03:52:05;99810.34;;;24.85;64.93
20368;BME280;10343;52.402;9.796;2023-07-24T03:54:33;99796.00;;;25.03;63.86
20368;BME280;10343;52.402;9.796;2023-07-24T03:57:01;99805.56;;;24.69;65.47
20368;BME280;10343;52.402;9.796;2023-07-24T03:59:30;99794.66;;;24.79;64.37
20368;BME280;10343;52.402;9.796;2023-07-24T04:01:59;99797.66;;;25.32;62.26
20368;BME280;10343;52.402;9.796;2023-07-24T04:04:27;99796.69;;;24.77;64.84
20368;BME280;10343;52.402;9.796;2023-07-24T04:06:55;99788.16;;;24.72;64.05
20368;BME280;10343;52.402;9.796;2023-07-24T04:09:23;99787.84;;;25.31;61.56
20368;BME280;10343;52.402;9.796;2023-07-24T04:11:51;99793.38;;;25.11;62.49
20368;BME280;10343;52.402;9.796;2023-07-24T04:14:19;99780.53;;;25.13;62.03
20368;BME280;10343;52.402;9.796;2023-07-24T04:16:47;99767.41;;;25.36;60.99
20368;BME280;10343;52.402;9.796;2023-07-24T04:19:16;99762.91;;;25.45;60.30
20368;BME280;10343;52.402;9.796;2023-07-24T04:21:44;99756.63;;;25.81;59.15
20368;BME280;10343;52.402;9.796;2023-07-24T04:24:12;99769.81;;;26.46;56.28
20368;BME280;10343;52.402;9.796;2023-07-24T04:26:40;99766.81;;;26.49;56.17
20368;BME280;10343;52.402;9.796;2023-07-24T04:29:09;99783.06;;;25.78;58.14
20368;BME280;10343;52.402;9.796;2023-07-24T04:31:37;99770.53;;;26.22;56.57
20368;BME280;10343;52.402;9.796;2023-07-24T04:34:04;99772.72;;;26.00;57.20
20368;BME280;10343;52.402;9.796;2023-07-24T04:36:34;99760.09;;;26.61;54.92
20368;BME280;10343;52.402;9.796;2023-07-24T04:39:02;99762.22;;;26.23;55.70
20368;BME280;10343;52.402;9.796;2023-07-24T04:41:29;99759.41;;;26.33;55.98
20368;BME280;10343;52.402;9.796;2023-07-24T04:43:57;99763.38;;;25.58;58.20
20368;BME280;10343;52.402;9.796;2023-07-24T04:46:25;99755.59;;;26.00;57.31
20368;BME280;10343;52.402;9.796;2023-07-24T04:48:54;99749.66;;;26.22;56.59
20368;BME280;10343;52.402;9.796;2023-07-24T04:51:22;99751.94;;;26.61;54.70
20368;BME280;10343;52.402;9.796;2023-07-24T04:53:51;99765.91;;;25.96;56.79
20368;BME280;10343;52.402;9.796;2023-07-24T04:56:19;99767.25;;;25.38;59.87
20368;BME280;10343;52.402;9.796;2023-07-24T04:58:47;99752.50;;;25.22;61.77
20368;BME280;10343;52.402;9.796;2023-07-24T05:01:15;99747.81;;;24.69;63.15
20368;BME280;10343;52.402;9.796;2023-07-24T05:03:43;99732.47;;;25.96;58.02
20368;BME280;10343;52.402;9.796;2023-07-24T05:06:10;99725.56;;;25.39;60.31
20368;BME280;10343;52.402;9.796;2023-07-24T05:08:38;99727.00;;;24.87;63.04
20368;BME280;10343;52.402;9.796;2023-07-24T05:11:08;99719.16;;;25.12;61.26
20368;BME280;10343;52.402;9.796;2023-07-24T05:13:36;99710.75;;;25.69;60.00
20368;BME280;10343;52.402;9.796;2023-07-24T05:16:04;99716.28;;;26.04;58.06
20368;BME280;10343;52.402;9.796;2023-07-24T05:18:32;99730.53;;;26.06;57.20
20368;BME280;10343;52.402;9.796;2023-07-24T05:21:00;99729.44;;;26.86;54.67
20368;BME280;10343;52.402;9.796;2023-07-24T05:23:28;99720.22;;;25.91;57.30
20368;BME280;10343;52.402;9.796;2023-07-24T05:25:57;99709.03;;;25.14;60.18
20368;BME280;10343;52.402;9.796;2023-07-24T05:28:27;99712.59;;;26.39;55.75
20368;BME280;10343;52.402;9.796;2023-07-24T05:30:55;99715.00;;;25.72;57.73
20368;BME280;10343;52.402;9.796;2023-07-24T05:33:23;99717.75;;;26.93;53.71
20368;BME280;10343;52.402;9.796;2023-07-24T05:35:51;99726.59;;;27.04;52.82
20368;BME280;10343;52.402;9.796;2023-07-24T05:38:19;99726.56;;;26.87;52.60
20368;BME280;10343;52.402;9.796;2023-07-24T05:40:54;99737.38;;;26.44;53.91
20368;BME280;10343;52.402;9.796;2023-07-24T05:43:22;99727.88;;;25.96;55.74
20368;BME280;10343;52.402;9.796;2023-07-24T05:45:52;99731.28;;;25.72;56.48
20368;BME280;10343;52.402;9.796;2023-07-24T05:48:21;99719.78;;;26.22;55.89
20368;BME280;10343;52.402;9.796;2023-07-24T05:50:50;99704.81;;;25.02;61.68
20368;BME280;10343;52.402;9.796;2023-07-24T05:53:20;99696.06;;;24.62;66.79
20368;BME280;10343;52.402;9.796;2023-07-24T05:55:56;99702.53;;;25.61;62.54
20368;BME280;10343;52.402;9.796;2023-07-24T05:58:24;99713.28;;;25.71;62.33
20368;BME280;10343;52.402;9.796;2023-07-24T06:00:54;99720.31;;;25.09;66.73
20368;BME280;10343;52.402;9.796;2023-07-24T06:03:22;99721.09;;;25.74;63.17
20368;BME280;10343;52.402;9.796;2023-07-24T06:05:51;99714.34;;;25.06;67.75
20368;BME280;10343;52.402;9.796;2023-07-24T06:08:20;99715.72;;;24.54;69.96
20368;BME280;10343;52.402;9.796;2023-07-24T06:10:49;99705.13;;;24.71;70.01
20368;BME280;10343;52.402;9.796;2023-07-24T06:13:17;99703.66;;;24.86;69.75
20368;BME280;10343;52.402;9.796;2023-07-24T06:15:54;99705.44;;;25.14;69.07
20368;BME280;10343;52.402;9.796;2023-07-24T06:18:22;99695.81;;;25.47;66.30
20368;BME280;10343;52.402;9.796;2023-07-24T06:20:52;99685.59;;;25.31;68.13
20368;BME280;10343;52.402;9.796;2023-07-24T06:23:21;99686.50;;;24.86;70.67
20368;BME280;10343;52.402;9.796;2023-07-24T06:25:49;99680.91;;;25.51;67.16
20368;BME280;10343;52.402;9.796;2023-07-24T06:28:18;99663.16;;;25.83;65.00
20368;BME280;10343;52.402;9.796;2023-07-24T06:30:46;99660.19;;;25.94;64.13
20368;BME280;10343;52.402;9.796;2023-07-24T06:33:15;99650.16;;;25.69;65.36
20368;BME280;10343;52.402;9.796;2023-07-24T06:35:43;99646.25;;;27.67;57.15
20368;BME280;10343;52.402;9.796;2023-07-24T06:38:11;99648.56;;;26.80;59.52
20368;BME280;10343;52.402;9.796;2023-07-24T06:40:40;99645.00;;;26.10;62.16
20368;BME280;10343;52.402;9.796;2023-07-24T06:43:08;99638.13;;;26.24;62.56
20368;BME280;10343;52.402;9.796;2023-07-24T06:45:36;99644.81;;;26.03;64.25
20368;BME280;10343;52.402;9.796;2023-07-24T06:48:04;99641.13;;;27.15;58.60
20368;BME280;10343;52.402;9.796;2023-07-24T06:50:33;99646.22;;;27.01;58.80
20368;BME280;10343;52.402;9.796;2023-07-24T06:53:10;99654.97;;;26.27;61.71
20368;BME280;10343;52.402;9.796;2023-07-24T06:55:38;99654.41;;;25.98;62.98
20368;BME280;10343;52.402;9.796;2023-07-24T06:58:06;99654.50;;;26.91;60.07
20368;BME280;10343;52.402;9.796;2023-07-24T07:00:34;99651.81;;;26.49;61.21
20368;BME280;10343;52.402;9.796;2023-07-24T07:03:02;99651.50;;;27.03;59.23
20368;BME280;10343;52.402;9.796;2023-07-24T07:05:31;99657.44;;;27.15;57.55
20368;BME280;10343;52.402;9.796;2023-07-24T07:08:00;99651.44;;;26.78;59.43
20368;BME280;10343;52.402;9.796;2023-07-24T07:10:28;99654.56;;;27.33;58.03
20368;BME280;10343;52.402;9.796;2023-07-24T07:12:58;99655.44;;;26.57;59.92
20368;BME280;10343;52.402;9.796;2023-07-24T07:15:25;99663.53;;;26.49;59.68
20368;BME280;10343;52.402;9.796;2023-07-24T07:17:53;99661.00;;;26.90;58.72
20368;BME280;10343;52.402;9.796;2023-07-24T07:20:21;99661.31;;;26.10;60.92
20368;BME280;10343;52.402;9.796;2023-07-24T07:22:49;99664.09;;;25.74;62.73
20368;BME280;10343;52.402;9.796;2023-07-24T07:25:18;99667.56;;;25.58;64.87
20368;BME280;10343;52.402;9.796;2023-07-24T07:27:46;99666.94;;;26.51;61.07
20368;BME280;10343;52.402;9.796;2023-07-24T07:30:14;99660.00;;;26.57;60.98
20368;BME280;10343;52.402;9.796;2023-07-24T07:32:43;99671.50;;;25.27;81.87
20368;BME280;10343;52.402;9.796;2023-07-24T07:35:11;99665.75;;;36.58;82.25
20368;BME280;10343;52.402;9.796;2023-07-24T07:37:39;99692.81;;;28.78;67.54
20368;BME280;10343;52.402;9.796;2023-07-24T07:40:07;99676.50;;;42.84;100.00
20368;BME280;10343;52.402;9.796;2023-07-24T07:42:37;99721.75;;;24.48;92.83
20368;BME280;10343;52.402;9.796;2023-07-24T07:45:07;99625.91;;;30.64;100.00
20368;BME280;10343;52.402;9.796;2023-07-24T07:47:35;99693.19;;;32.04;72.03
20368;BME280;10343;52.402;9.796;2023-07-24T07:50:03;99220.47;;;56.12;100.00
20368;BME280;10343;52.402;9.796;2023-07-24T07:52:31;99692.44;;;25.98;100.00
20368;BME280;10343;52.402;9.796;2023-07-24T07:54:59;99692.22;;;27.45;100.00
20368;BME280;10343;52.402;9.796;2023-07-24T07:57:27;99678.22;;;24.87;100.00
20368;BME280;10343;52.402;9.796;2023-07-24T07:59:56;99672.78;;;25.33;100.00
20368;BME280;10343;52.402;9.796;2023-07-24T08:02:24;99679.09;;;28.46;100.00
20368;BME280;10343;52.402;9.796;2023-07-24T08:04:52;99670.88;;;24.80;100.00
20368;BME280;10343;52.402;9.796;2023-07-24T08:07:20;99513.19;;;25.55;100.00
20368;BME280;10343;52.402;9.796;2023-07-24T08:09:48;99653.69;;;25.87;100.00
20368;BME280;10343;52.402;9.796;2023-07-24T08:12:16;99674.59;;;26.99;100.00
20368;BME280;10343;52.402;9.796;2023-07-24T08:14:43;99672.38;;;25.46;100.00
20368;BME280;10343;52.402;9.796;2023-07-24T08:17:13;99684.53;;;25.60;100.00
20368;BME280;10343;52.402;9.796;2023-07-24T08:19:41;99681.25;;;24.84;100.00
20368;BME280;10343;52.402;9.796;2023-07-24T08:22:09;99690.19;;;24.95;100.00
20368;BME280;10343;52.402;9.796;2023-07-24T08:24:36;99699.44;;;25.56;100.00
20368;BME280;10343;52.402;9.796;2023-07-24T08:27:05;99692.81;;;24.86;100.00
20368;BME280;10343;52.402;9.796;2023-07-24T08:29:33;99700.16;;;25.84;100.00
20368;BME280;10343;52.402;9.796;2023-07-24T08:32:03;99704.66;;;25.75;100.00
20368;BME280;10343;52.402;9.796;2023-07-24T08:34:33;99704.19;;;26.24;100.00
20368;BME280;10343;52.402;9.796;2023-07-24T08:37:00;99708.22;;;26.20;95.79
20368;BME280;10343;52.402;9.796;2023-07-24T08:39:28;99704.94;;;27.86;84.94
20368;BME280;10343;52.402;9.796;2023-07-24T08:41:58;99670.16;;;34.10;100.00
20368;BME280;10343;52.402;9.796;2023-07-24T08:44:27;99684.50;;;27.82;100.00
20368;BME280;10343;52.402;9.796;2023-07-24T08:46:58;99687.59;;;27.54;93.05
20368;BME280;10343;52.402;9.796;2023-07-24T08:49:26;99690.94;;;27.15;85.63
20368;BME280;10343;52.402;9.796;2023-07-24T08:52:02;99685.03;;;27.94;83.74
20368;BME280;10343;52.402;9.796;2023-07-24T08:54:31;99680.59;;;27.85;83.74
20368;BME280;10343;52.402;9.796;2023-07-24T08:57:01;99682.44;;;28.25;86.06
20368;BME280;10343;52.402;9.796;2023-07-24T08:59:29;99675.31;;;27.91;89.29
20368;BME280;10343;52.402;9.796;2023-07-24T09:01:57;99676.69;;;27.95;81.52
20368;BME280;10343;52.402;9.796;2023-07-24T09:04:25;99684.81;;;27.21;89.37
20368;BME280;10343;52.402;9.796;2023-07-24T09:06:53;99678.28;;;26.81;90.19
20368;BME280;10343;52.402;9.796;2023-07-24T09:09:29;99677.06;;;27.59;87.27
20368;BME280;10343;52.402;9.796;2023-07-24T09:11:57;99667.16;;;28.00;87.80
20368;BME280;10343;52.402;9.796;2023-07-24T09:14:28;99678.66;;;28.26;80.24
20368;BME280;10343;52.402;9.796;2023-07-24T09:17:05;99668.50;;;28.68;77.46
20368;BME280;10343;52.402;9.796;2023-07-24T09:19:33;99663.88;;;29.00;72.96
20368;BME280;10343;52.402;9.796;2023-07-24T09:22:08;99666.59;;;29.00;69.33
20368;BME280;10343;52.402;9.796;2023-07-24T09:24:49;99677.81;;;28.26;74.62
20368;BME280;10343;52.402;9.796;2023-07-24T09:27:17;99674.50;;;28.47;80.11
20368;BME280;10343;52.402;9.796;2023-07-24T09:29:45;99667.31;;;28.15;79.53
20368;BME280;10343;52.402;9.796;2023-07-24T09:32:20;99659.34;;;28.05;78.94
20368;BME280;10343;52.402;9.796;2023-07-24T09:34:49;99662.38;;;27.93;76.84
20368;BME280;10343;52.402;9.796;2023-07-24T09:37:25;99668.88;;;27.68;75.18
20368;BME280;10343;52.402;9.796;2023-07-24T09:39:55;99669.16;;;28.14;73.57
20368;BME280;10343;52.402;9.796;2023-07-24T09:42:33;99678.38;;;28.13;72.25
20368;BME280;10343;52.402;9.796;2023-07-24T09:45:18;99674.31;;;28.01;69.99
20368;BME280;10343;52.402;9.796;2023-07-24T09:47:49;99674.16;;;28.50;68.50
20368;BME280;10343;52.402;9.796;2023-07-24T09:50:25;99677.97;;;28.80;69.60
20368;BME280;10343;52.402;9.796;2023-07-24T09:52:54;99673.16;;;28.43;68.46
20368;BME280;10343;52.402;9.796;2023-07-24T09:55:30;99680.84;;;28.87;69.88
20368;BME280;10343;52.402;9.796;2023-07-24T09:58:02;99682.34;;;28.50;67.15
20368;BME280;10343;52.402;9.796;2023-07-24T10:00:31;99673.97;;;27.71;65.80
20368;BME280;10343;52.402;9.796;2023-07-24T10:03:00;99672.97;;;27.47;67.33
20368;BME280;10343;52.402;9.796;2023-07-24T10:05:29;99663.47;;;27.51;66.53
20368;BME280;10343;52.402;9.796;2023-07-24T10:07:57;99658.63;;;27.94;66.64
20368;BME280;10343;52.402;9.796;2023-07-24T10:10:28;99652.81;;;28.14;63.96
20368;BME280;10343;52.402;9.796;2023-07-24T10:12:58;99650.44;;;28.59;64.56
20368;BME280;10343;52.402;9.796;2023-07-24T10:15:27;99658.94;;;28.24;63.02
20368;BME280;10343;52.402;9.796;2023-07-24T10:18:02;99646.81;;;28.98;64.54
20368;BME280;10343;52.402;9.796;2023-07-24T10:20:34;99641.78;;;29.10;58.84
20368;BME280;10343;52.402;9.796;2023-07-24T10:23:02;99646.13;;;29.65;59.73
20368;BME280;10343;52.402;9.796;2023-07-24T10:25:33;99640.31;;;29.69;58.45
20368;BME280;10343;52.402;9.796;2023-07-24T10:28:02;99651.66;;;28.88;60.81
20368;BME280;10343;52.402;9.796;2023-07-24T10:30:34;99645.81;;;26.71;68.53
20368;BME280;10343;52.402;9.796;2023-07-24T10:33:07;99641.28;;;27.87;66.50
20368;BME280;10343;52.402;9.796;2023-07-24T10:35:43;99640.94;;;27.90;63.24
20368;BME280;10343;52.402;9.796;2023-07-24T10:38:13;99635.72;;;27.56;60.87
20368;BME280;10343;52.402;9.796;2023-07-24T10:40:46;99634.16;;;27.70;63.01
20368;BME280;10343;52.402;9.796;2023-07-24T10:43:18;99627.06;;;28.25;59.16
20368;BME280;10343;52.402;9.796;2023-07-24T10:45:49;99628.84;;;28.49;58.55
20368;BME280;10343;52.402;9.796;2023-07-24T10:48:18;99611.53;;;28.96;53.71
20368;BME280;10343;52.402;9.796;2023-07-24T10:50:47;99614.03;;;28.83;55.59
20368;BME280;10343;52.402;9.796;2023-07-24T10:53:21;99602.66;;;29.79;55.87
20368;BME280;10343;52.402;9.796;2023-07-24T10:55:51;99602.94;;;30.29;51.22
20368;BME280;10343;52.402;9.796;2023-07-24T10:58:19;99613.97;;;29.38;52.41
20368;BME280;10343;52.402;9.796;2023-07-24T11:00:47;99614.59;;;28.30;53.25
20368;BME280;10343;52.402;9.796;2023-07-24T11:03:17;99614.16;;;29.13;51.86
20368;BME280;10343;52.402;9.796;2023-07-24T11:05:46;99602.94;;;28.53;50.96
20368;BME280;10343;52.402;9.796;2023-07-24T11:08:15;99599.31;;;27.65;53.93
20368;BME280;10343;52.402;9.796;2023-07-24T11:10:47;99609.34;;;27.65;53.91
20368;BME280;10343;52.402;9.796;2023-07-24T11:13:17;99602.69;;;27.67;53.68
20368;BME280;10343;52.402;9.796;2023-07-24T11:15:46;99608.91;;;28.17;52.74
20368;BME280;10343;52.402;9.796;2023-07-24T11:18:14;99596.34;;;29.25;51.05
20368;BME280;10343;52.402;9.796;2023-07-24T11:20:44;99593.53;;;29.34;50.74
20368;BME280;10343;52.402;9.796;2023-07-24T11:23:13;99580.31;;;29.75;49.20
20368;BME280;10343;52.402;9.796;2023-07-24T11:25:42;99590.94;;;29.55;49.06
20368;BME280;10343;52.402;9.796;2023-07-24T11:28:11;99593.00;;;29.15;50.26
20368;BME280;10343;52.402;9.796;2023-07-24T11:30:42;99591.75;;;29.41;49.96
20368;BME280;10343;52.402;9.796;2023-07-24T11:33:14;99593.66;;;29.17;50.29
20368;BME280;10343;52.402;9.796;2023-07-24T11:35:45;99584.88;;;29.45;51.62
20368;BME280;10343;52.402;9.796;2023-07-24T11:38:13;99584.63;;;29.40;51.00
20368;BME280;10343;52.402;9.796;2023-07-24T11:40:42;99606.81;;;28.19;51.73
20368;BME280;10343;52.402;9.796;2023-07-24T11:43:19;99621.47;;;28.18;52.71
20368;BME280;10343;52.402;9.796;2023-07-24T11:45:49;99626.81;;;28.43;52.61
20368;BME280;10343;52.402;9.796;2023-07-24T11:48:19;99629.88;;;28.00;52.91
20368;BME280;10343;52.402;9.796;2023-07-24T11:50:49;99635.19;;;27.11;60.30
20368;BME280;10343;52.402;9.796;2023-07-24T11:53:24;99644.69;;;26.90;70.46
20368;BME280;10343;52.402;9.796;2023-07-24T11:55:54;99638.19;;;26.40;70.28
20368;BME280;10343;52.402;9.796;2023-07-24T11:58:24;99645.06;;;27.70;65.97
20368;BME280;10343;52.402;9.796;2023-07-24T12:00:55;99628.09;;;28.63;60.28
20368;BME280;10343;52.402;9.796;2023-07-24T12:03:25;99614.59;;;29.63;58.57
20368;BME280;10343;52.402;9.796;2023-07-24T12:05:53;99617.19;;;29.41;56.46
20368;BME280;10343;52.402;9.796;2023-07-24T12:08:29;99608.97;;;29.26;56.72
20368;BME280;10343;52.402;9.796;2023-07-24T12:10:58;99605.06;;;29.44;56.42
20368;BME280;10343;52.402;9.796;2023-07-24T12:13:26;99613.91;;;28.37;61.08
20368;BME280;10343;52.402;9.796;2023-07-24T12:15:55;99612.72;;;27.34;63.35
20368;BME280;10343;52.402;9.796;2023-07-24T12:18:23;99616.47;;;27.08;68.71
20368;BME280;10343;52.402;9.796;2023-07-24T12:20:51;99618.78;;;25.92;73.06
20368;BME280;10343;52.402;9.796;2023-07-24T12:23:18;99606.00;;;26.11;74.86
20368;BME280;10343;52.402;9.796;2023-07-24T12:25:47;99605.50;;;26.67;68.60
20368;BME280;10343;52.402;9.796;2023-07-24T12:28:15;99611.19;;;26.39;72.54
20368;BME280;10343;52.402;9.796;2023-07-24T12:30:43;99619.88;;;27.02;70.33
20368;BME280;10343;52.402;9.796;2023-07-24T12:33:12;99610.00;;;27.09;70.59
20368;BME280;10343;52.402;9.796;2023-07-24T12:35:40;99611.38;;;27.13;71.94
20368;BME280;10343;52.402;9.796;2023-07-24T12:38:08;99605.63;;;26.49;72.61
20368;BME280;10343;52.402;9.796;2023-07-24T12:40:36;99605.31;;;26.60;71.71
20368;BME280;10343;52.402;9.796;2023-07-24T12:43:03;99615.53;;;26.66;77.14
20368;BME280;10343;52.402;9.796;2023-07-24T12:45:31;99612.97;;;26.65;75.37
20368;BME280;10343;52.402;9.796;2023-07-24T12:47:59;99610.84;;;26.76;78.49
20368;BME280;10343;52.402;9.796;2023-07-24T12:50:29;99604.41;;;26.43;78.06
20368;BME280;10343;52.402;9.796;2023-07-24T12:52:59;99595.38;;;26.34;79.95
20368;BME280;10343;52.402;9.796;2023-07-24T12:55:31;99579.25;;;26.84;83.56
20368;BME280;10343;52.402;9.796;2023-07-24T12:57:58;99591.44;;;26.71;83.29
20368;BME280;10343;52.402;9.796;2023-07-24T13:00:28;99578.06;;;27.19;81.07
20368;BME280;10343;52.402;9.796;2023-07-24T13:02:58;99580.06;;;27.67;75.66
20368;BME280;10343;52.402;9.796;2023-07-24T13:05:26;99573.69;;;27.99;72.37
20368;BME280;10343;52.402;9.796;2023-07-24T13:07:55;99571.38;;;28.27;69.57
20368;BME280;10343;52.402;9.796;2023-07-24T13:10:23;99572.13;;;29.60;68.64